sensor_id;sensor_type;location;lat;lon;timestamp;temperature;humidity
21439;DHT22;10880;50.302;18.736;2023-03-23T00:01:06;14.20;54.80
21439;DHT22;10880;50.302;18.736;2023-03-23T00:03:33;14.20;54.90
21439;DHT22;10880;50.302;18.736;2023-03-23T00:08:32;14.10;54.40
21439;DHT22;10880;50.302;18.736;2023-03-23T00:10:59;14.00;55.00
21439;DHT22;10880;50.302;18.736;2023-03-23T00:13:28;14.00;54.80
21439;DHT22;10880;50.302;18.736;2023-03-23T00:15:55;13.90;55.10
21439;DHT22;10880;50.302;18.736;2023-03-23T00:18:28;13.90;54.90
21439;DHT22;10880;50.302;18.736;2023-03-23T00:20:56;13.80;55.00
21439;DHT22;10880;50.302;18.736;2023-03-23T00:23:25;13.70;54.90
21439;DHT22;10880;50.302;18.736;2023-03-23T00:25:56;13.70;55.40
21439;DHT22;10880;50.302;18.736;2023-03-23T00:28:26;13.50;55.10
21439;DHT22;10880;50.302;18.736;2023-03-23T00:30:59;13.50;55.40
21439;DHT22;10880;50.302;18.736;2023-03-23T00:33:29;13.40;55.20
21439;DHT22;10880;50.302;18.736;2023-03-23T00:35:56;13.40;55.70
21439;DHT22;10880;50.302;18.736;2023-03-23T00:38:23;13.40;55.40
21439;DHT22;10880;50.302;18.736;2023-03-23T00:40:50;13.30;55.80
21439;DHT22;10880;50.302;18.736;2023-03-23T00:43:18;13.30;55.70
21439;DHT22;10880;50.302;18.736;2023-03-23T00:45:45;13.20;55.70
21439;DHT22;10880;50.302;18.736;2023-03-23T00:48:20;13.20;56.20
21439;DHT22;10880;50.302;18.736;2023-03-23T00:53:14;13.20;56.10
21439;DHT22;10880;50.302;18.736;2023-03-23T00:55:42;13.10;56.10
21439;DHT22;10880;50.302;18.736;2023-03-23T00:58:10;13.10;56.60
21439;DHT22;10880;50.302;18.736;2023-03-23T01:03:06;13.00;56.30
21439;DHT22;10880;50.302;18.736;2023-03-23T01:05:36;13.00;56.40
21439;DHT22;10880;50.302;18.736;2023-03-23T01:08:04;12.90;56.50
21439;DHT22;10880;50.302;18.736;2023-03-23T01:10:32;12.90;56.50
21439;DHT22;10880;50.302;18.736;2023-03-23T01:13:00;12.80;56.70
21439;DHT22;10880;50.302;18.736;2023-03-23T01:15:28;12.80;56.90
21439;DHT22;10880;50.302;18.736;2023-03-23T01:18:01;12.80;57.30
21439;DHT22;10880;50.302;18.736;2023-03-23T01:20:28;12.80;57.30
21439;DHT22;10880;50.302;18.736;2023-03-23T01:23:04;12.70;57.40
21439;DHT22;10880;50.302;18.736;2023-03-23T01:25:34;12.60;57.20
21439;DHT22;10880;50.302;18.736;2023-03-23T01:28:03;12.60;57.60
21439;DHT22;10880;50.302;18.736;2023-03-23T01:30:31;12.60;57.60
21439;DHT22;10880;50.302;18.736;2023-03-23T01:32:57;12.60;57.40
21439;DHT22;10880;50.302;18.736;2023-03-23T01:35:24;12.60;57.70
21439;DHT22;10880;50.302;18.736;2023-03-23T01:37:54;12.50;57.80
21439;DHT22;10880;50.302;18.736;2023-03-23T01:40:21;12.50;57.80
21439;DHT22;10880;50.302;18.736;2023-03-23T01:42:47;12.50;57.70
21439;DHT22;10880;50.302;18.736;2023-03-23T01:45:32;12.50;57.70
21439;DHT22;10880;50.302;18.736;2023-03-23T01:48:17;12.50;58.00
21439;DHT22;10880;50.302;18.736;2023-03-23T01:51:04;12.50;58.50
21439;DHT22;10880;50.302;18.736;2023-03-23T01:53:40;12.50;58.00
21439;DHT22;10880;50.302;18.736;2023-03-23T01:56:09;12.50;58.00
21439;DHT22;10880;50.302;18.736;2023-03-23T01:58:40;12.50;58.40
21439;DHT22;10880;50.302;18.736;2023-03-23T02:01:12;12.50;58.50
21439;DHT22;10880;50.302;18.736;2023-03-23T02:03:43;12.50;58.00
21439;DHT22;10880;50.302;18.736;2023-03-23T02:06:12;12.50;58.00
21439;DHT22;10880;50.302;18.736;2023-03-23T02:08:55;12.50;58.10
21439;DHT22;10880;50.302;18.736;2023-03-23T02:11:22;12.60;58.10
21439;DHT22;10880;50.302;18.736;2023-03-23T02:13:49;12.50;57.90
21439;DHT22;10880;50.302;18.736;2023-03-23T02:18:57;12.60;57.90
21439;DHT22;10880;50.302;18.736;2023-03-23T02:25:10;12.60;58.60
21439;DHT22;10880;50.302;18.736;2023-03-23T02:35:28;12.60;58.20
21439;DHT22;10880;50.302;18.736;2023-03-23T02:38:05;12.60;58.20
21439;DHT22;10880;50.302;18.736;2023-03-23T02:40:40;12.50;58.10
21439;DHT22;10880;50.302;18.736;2023-03-23T02:43:09;12.50;58.10
21439;DHT22;10880;50.302;18.736;2023-03-23T02:45:38;12.50;58.60
21439;DHT22;10880;50.302;18.736;2023-03-23T02:48:09;12.50;58.60
21439;DHT22;10880;50.302;18.736;2023-03-23T02:50:38;12.50;58.30
21439;DHT22;10880;50.302;18.736;2023-03-23T02:53:09;12.50;58.30
21439;DHT22;10880;50.302;18.736;2023-03-23T02:55:40;12.50;58.80
21439;DHT22;10880;50.302;18.736;2023-03-23T03:00:37;12.60;58.50
21439;DHT22;10880;50.302;18.736;2023-03-23T03:03:05;12.60;58.70
21439;DHT22;10880;50.302;18.736;2023-03-23T03:08:34;12.60;58.70
21439;DHT22;10880;50.302;18.736;2023-03-23T03:11:08;12.60;59.20
21439;DHT22;10880;50.302;18.736;2023-03-23T03:18:38;12.60;58.70
21439;DHT22;10880;50.302;18.736;2023-03-23T03:21:12;12.60;58.90
21439;DHT22;10880;50.302;18.736;2023-03-23T03:23:43;12.60;58.90
21439;DHT22;10880;50.302;18.736;2023-03-23T03:26:12;12.60;58.90
21439;DHT22;10880;50.302;18.736;2023-03-23T03:28:49;12.60;58.90
21439;DHT22;10880;50.302;18.736;2023-03-23T03:31:20;12.60;58.70
21439;DHT22;10880;50.302;18.736;2023-03-23T03:33:47;12.60;58.60
21439;DHT22;10880;50.302;18.736;2023-03-23T03:36:20;12.60;58.50
21439;DHT22;10880;50.302;18.736;2023-03-23T03:38:50;12.60;59.10
21439;DHT22;10880;50.302;18.736;2023-03-23T03:41:18;12.70;58.50
21439;DHT22;10880;50.302;18.736;2023-03-23T03:46:14;12.70;58.60
21439;DHT22;10880;50.302;18.736;2023-03-23T03:48:40;12.70;58.60
21439;DHT22;10880;50.302;18.736;2023-03-23T03:53:40;12.80;58.70
21439;DHT22;10880;50.302;18.736;2023-03-23T03:58:40;12.80;58.50
21439;DHT22;10880;50.302;18.736;2023-03-23T04:01:22;12.80;58.60
21439;DHT22;10880;50.302;18.736;2023-03-23T04:03:50;12.80;58.70
21439;DHT22;10880;50.302;18.736;2023-03-23T04:08:57;12.80;58.40
21439;DHT22;10880;50.302;18.736;2023-03-23T04:11:25;12.80;58.60
21439;DHT22;10880;50.302;18.736;2023-03-23T04:13:53;12.80;58.80
21439;DHT22;10880;50.302;18.736;2023-03-23T04:16:25;12.80;58.70
21439;DHT22;10880;50.302;18.736;2023-03-23T04:18:53;12.80;58.80
21439;DHT22;10880;50.302;18.736;2023-03-23T04:21:23;12.90;58.90
21439;DHT22;10880;50.302;18.736;2023-03-23T04:23:52;12.90;59.00
21439;DHT22;10880;50.302;18.736;2023-03-23T04:26:20;12.80;60.40
21439;DHT22;10880;50.302;18.736;2023-03-23T04:28:49;12.80;59.40
21439;DHT22;10880;50.302;18.736;2023-03-23T04:31:32;12.80;59.40
21439;DHT22;10880;50.302;18.736;2023-03-23T04:34:08;12.70;59.40
21439;DHT22;10880;50.302;18.736;2023-03-23T04:36:41;12.70;59.40
21439;DHT22;10880;50.302;18.736;2023-03-23T04:39:16;12.70;59.50
21439;DHT22;10880;50.302;18.736;2023-03-23T04:41:44;12.70;59.50
21439;DHT22;10880;50.302;18.736;2023-03-23T04:44:22;12.70;59.90
21439;DHT22;10880;50.302;18.736;2023-03-23T04:46:57;12.70;59.40
21439;DHT22;10880;50.302;18.736;2023-03-23T04:49:29;12.60;59.20
21439;DHT22;10880;50.302;18.736;2023-03-23T04:52:05;12.60;59.30
21439;DHT22;10880;50.302;18.736;2023-03-23T04:54:58;12.60;59.40
21439;DHT22;10880;50.302;18.736;2023-03-23T04:57:26;12.60;59.30
21439;DHT22;10880;50.302;18.736;2023-03-23T05:00:14;12.60;59.50
21439;DHT22;10880;50.302;18.736;2023-03-23T05:02:47;12.60;59.50
21439;DHT22;10880;50.302;18.736;2023-03-23T05:05:19;12.60;59.40
21439;DHT22;10880;50.302;18.736;2023-03-23T05:07:46;12.60;59.60
21439;DHT22;10880;50.302;18.736;2023-03-23T05:10:18;12.60;59.40
21439;DHT22;10880;50.302;18.736;2023-03-23T05:15:16;12.60;59.30
21439;DHT22;10880;50.302;18.736;2023-03-23T05:20:16;12.60;59.40
21439;DHT22;10880;50.302;18.736;2023-03-23T05:22:52;12.60;60.30
21439;DHT22;10880;50.302;18.736;2023-03-23T05:25:25;12.60;59.70
21439;DHT22;10880;50.302;18.736;2023-03-23T05:27:59;12.60;59.90
21439;DHT22;10880;50.302;18.736;2023-03-23T05:30:52;12.70;60.20
21439;DHT22;10880;50.302;18.736;2023-03-23T05:33:55;12.70;60.70
21439;DHT22;10880;50.302;18.736;2023-03-23T05:39:21;12.80;60.20
21439;DHT22;10880;50.302;18.736;2023-03-23T05:42:01;12.80;60.50
21439;DHT22;10880;50.302;18.736;2023-03-23T05:47:10;12.90;60.40
21439;DHT22;10880;50.302;18.736;2023-03-23T05:49:40;13.00;60.80
21439;DHT22;10880;50.302;18.736;2023-03-23T05:52:10;13.00;61.10
21439;DHT22;10880;50.302;18.736;2023-03-23T05:57:04;12.80;60.50
21439;DHT22;10880;50.302;18.736;2023-03-23T05:59:51;13.20;61.30
21439;DHT22;10880;50.302;18.736;2023-03-23T06:02:22;13.20;61.10
21439;DHT22;10880;50.302;18.736;2023-03-23T06:04:51;13.30;61.20
21439;DHT22;10880;50.302;18.736;2023-03-23T06:07:28;13.30;61.20
21439;DHT22;10880;50.302;18.736;2023-03-23T06:12:41;13.50;60.70
21439;DHT22;10880;50.302;18.736;2023-03-23T06:15:09;13.50;61.10
21439;DHT22;10880;50.302;18.736;2023-03-23T06:20:26;13.60;60.40
21439;DHT22;10880;50.302;18.736;2023-03-23T06:22:54;13.70;60.60
21439;DHT22;10880;50.302;18.736;2023-03-23T06:25:27;13.80;60.60
21439;DHT22;10880;50.302;18.736;2023-03-23T06:27:54;13.90;60.60
21439;DHT22;10880;50.302;18.736;2023-03-23T06:30:22;13.90;60.60
21439;DHT22;10880;50.302;18.736;2023-03-23T06:32:49;14.00;60.20
21439;DHT22;10880;50.302;18.736;2023-03-23T06:35:22;14.00;60.10
21439;DHT22;10880;50.302;18.736;2023-03-23T06:40:34;14.20;59.90
21439;DHT22;10880;50.302;18.736;2023-03-23T06:43:03;14.30;59.80
21439;DHT22;10880;50.302;18.736;2023-03-23T06:48:35;14.30;59.70
21439;DHT22;10880;50.302;18.736;2023-03-23T06:51:04;14.40;60.10
21439;DHT22;10880;50.302;18.736;2023-03-23T06:53:33;14.50;59.80
21439;DHT22;10880;50.302;18.736;2023-03-23T06:56:00;14.50;59.70
21439;DHT22;10880;50.302;18.736;2023-03-23T06:58:29;14.60;59.70
21439;DHT22;10880;50.302;18.736;2023-03-23T07:08:26;14.80;59.10
21439;DHT22;10880;50.302;18.736;2023-03-23T07:10:55;14.80;59.20
21439;DHT22;10880;50.302;18.736;2023-03-23T07:13:29;14.90;59.50
21439;DHT22;10880;50.302;18.736;2023-03-23T07:15:59;14.90;59.20
21439;DHT22;10880;50.302;18.736;2023-03-23T07:18:27;14.90;59.00
21439;DHT22;10880;50.302;18.736;2023-03-23T07:20:56;15.00;58.80
21439;DHT22;10880;50.302;18.736;2023-03-23T07:23:31;15.10;58.80
21439;DHT22;10880;50.302;18.736;2023-03-23T07:26:06;15.10;59.00
21439;DHT22;10880;50.302;18.736;2023-03-23T07:28:38;15.10;59.10
21439;DHT22;10880;50.302;18.736;2023-03-23T07:31:26;15.10;59.10
21439;DHT22;10880;50.302;18.736;2023-03-23T07:33:56;15.20;58.90
21439;DHT22;10880;50.302;18.736;2023-03-23T07:36:27;15.20;58.80
21439;DHT22;10880;50.302;18.736;2023-03-23T07:41:21;15.30;58.60
21439;DHT22;10880;50.302;18.736;2023-03-23T07:46:32;15.50;58.60
21439;DHT22;10880;50.302;18.736;2023-03-23T07:49:09;15.50;59.60
21439;DHT22;10880;50.302;18.736;2023-03-23T07:51:42;15.70;58.70
21439;DHT22;10880;50.302;18.736;2023-03-23T07:54:12;15.70;58.90
21439;DHT22;10880;50.302;18.736;2023-03-23T07:57:01;15.80;58.40
21439;DHT22;10880;50.302;18.736;2023-03-23T08:04:42;16.00;58.10
21439;DHT22;10880;50.302;18.736;2023-03-23T08:07:35;16.20;57.90
21439;DHT22;10880;50.302;18.736;2023-03-23T08:10:21;16.20;58.00
21439;DHT22;10880;50.302;18.736;2023-03-23T08:15:56;16.30;57.70
21439;DHT22;10880;50.302;18.736;2023-03-23T08:18:42;16.40;58.00
21439;DHT22;10880;50.302;18.736;2023-03-23T08:21:27;16.50;57.70
21439;DHT22;10880;50.302;18.736;2023-03-23T08:24:03;16.60;57.80
21439;DHT22;10880;50.302;18.736;2023-03-23T08:26:45;16.80;57.20
21439;DHT22;10880;50.302;18.736;2023-03-23T08:29:35;16.90;57.50
21439;DHT22;10880;50.302;18.736;2023-03-23T08:32:04;17.00;57.20
21439;DHT22;10880;50.302;18.736;2023-03-23T08:40:01;17.50;56.90
21439;DHT22;10880;50.302;18.736;2023-03-23T08:42:50;17.60;56.90
21439;DHT22;10880;50.302;18.736;2023-03-23T08:45:35;17.60;57.30
21439;DHT22;10880;50.302;18.736;2023-03-23T08:48:29;17.70;56.80
21439;DHT22;10880;50.302;18.736;2023-03-23T08:50:55;17.90;56.20
21439;DHT22;10880;50.302;18.736;2023-03-23T08:53:48;18.00;56.40
21439;DHT22;10880;50.302;18.736;2023-03-23T08:59:17;18.20;55.70
21439;DHT22;10880;50.302;18.736;2023-03-23T09:02:13;18.50;55.70
21439;DHT22;10880;50.302;18.736;2023-03-23T09:07:26;18.60;55.40
21439;DHT22;10880;50.302;18.736;2023-03-23T09:09:52;18.80;55.10
21439;DHT22;10880;50.302;18.736;2023-03-23T09:12:19;18.80;55.10
21439;DHT22;10880;50.302;18.736;2023-03-23T09:17:13;19.10;54.70
21439;DHT22;10880;50.302;18.736;2023-03-23T09:19:40;19.10;54.50
21439;DHT22;10880;50.302;18.736;2023-03-23T09:27:01;19.40;53.70
21439;DHT22;10880;50.302;18.736;2023-03-23T09:29:28;19.40;53.70
21439;DHT22;10880;50.302;18.736;2023-03-23T09:34:22;19.50;53.20
21439;DHT22;10880;50.302;18.736;2023-03-23T09:36:49;19.70;52.80
21439;DHT22;10880;50.302;18.736;2023-03-23T09:39:16;19.70;53.20
21439;DHT22;10880;50.302;18.736;2023-03-23T09:50:19;19.90;52.50
21439;DHT22;10880;50.302;18.736;2023-03-23T09:52:55;19.90;53.00
21439;DHT22;10880;50.302;18.736;2023-03-23T09:55:23;19.90;53.00
21439;DHT22;10880;50.302;18.736;2023-03-23T09:57:54;20.00;52.40
21439;DHT22;10880;50.302;18.736;2023-03-23T10:00:44;20.00;52.90
21439;DHT22;10880;50.302;18.736;2023-03-23T10:03:15;20.10;51.90
21439;DHT22;10880;50.302;18.736;2023-03-23T10:05:51;20.10;51.60
21439;DHT22;10880;50.302;18.736;2023-03-23T10:08:21;20.10;52.10
21439;DHT22;10880;50.302;18.736;2023-03-23T10:11:17;20.10;52.10
21439;DHT22;10880;50.302;18.736;2023-03-23T10:17:39;20.30;51.00
21439;DHT22;10880;50.302;18.736;2023-03-23T10:22:32;20.40;51.10
21439;DHT22;10880;50.302;18.736;2023-03-23T10:27:46;20.50;51.10
21439;DHT22;10880;50.302;18.736;2023-03-23T10:35:19;20.60;50.00
21439;DHT22;10880;50.302;18.736;2023-03-23T10:37:50;20.60;48.70
21439;DHT22;10880;50.302;18.736;2023-03-23T10:40:22;20.60;49.30
21439;DHT22;10880;50.302;18.736;2023-03-23T10:42:52;20.60;49.20
21439;DHT22;10880;50.302;18.736;2023-03-23T10:45:23;20.60;49.10
21439;DHT22;10880;50.302;18.736;2023-03-23T10:50:34;20.60;48.60
21439;DHT22;10880;50.302;18.736;2023-03-23T10:53:10;20.50;48.30
21439;DHT22;10880;50.302;18.736;2023-03-23T10:55:40;20.50;48.70
21439;DHT22;10880;50.302;18.736;2023-03-23T10:58:11;20.50;48.90
21439;DHT22;10880;50.302;18.736;2023-03-23T11:00:46;20.50;49.40
21439;DHT22;10880;50.302;18.736;2023-03-23T11:08:18;20.40;48.80
21439;DHT22;10880;50.302;18.736;2023-03-23T11:10:51;20.40;49.00
21439;DHT22;10880;50.302;18.736;2023-03-23T11:13:20;20.40;49.30
21439;DHT22;10880;50.302;18.736;2023-03-23T11:15:48;20.30;48.80
21439;DHT22;10880;50.302;18.736;2023-03-23T11:18:27;20.30;48.50
21439;DHT22;10880;50.302;18.736;2023-03-23T11:21:02;20.30;49.10
21439;DHT22;10880;50.302;18.736;2023-03-23T11:23:54;20.30;48.70
21439;DHT22;10880;50.302;18.736;2023-03-23T11:26:27;20.30;49.10
21439;DHT22;10880;50.302;18.736;2023-03-23T11:29:03;20.30;49.10
21439;DHT22;10880;50.302;18.736;2023-03-23T11:31:44;20.30;48.60
21439;DHT22;10880;50.302;18.736;2023-03-23T11:34:17;20.30;48.60
21439;DHT22;10880;50.302;18.736;2023-03-23T11:36:55;20.30;48.50
21439;DHT22;10880;50.302;18.736;2023-03-23T11:41:53;20.30;48.30
21439;DHT22;10880;50.302;18.736;2023-03-23T11:44:22;20.30;48.40
21439;DHT22;10880;50.302;18.736;2023-03-23T11:47:04;20.40;48.60
21439;DHT22;10880;50.302;18.736;2023-03-23T11:49:55;20.40;48.80
21439;DHT22;10880;50.302;18.736;2023-03-23T11:52:34;20.40;48.70
21439;DHT22;10880;50.302;18.736;2023-03-23T11:57:52;20.50;48.60
21439;DHT22;10880;50.302;18.736;2023-03-23T12:00:20;20.50;49.20
21439;DHT22;10880;50.302;18.736;2023-03-23T12:06:13;20.60;48.30
21439;DHT22;10880;50.302;18.736;2023-03-23T12:14:15;20.70;48.50
21439;DHT22;10880;50.302;18.736;2023-03-23T12:19:10;20.70;48.30
21439;DHT22;10880;50.302;18.736;2023-03-23T12:24:51;20.80;48.70
21439;DHT22;10880;50.302;18.736;2023-03-23T12:46:16;20.90;48.10
21439;DHT22;10880;50.302;18.736;2023-03-23T12:49:01;20.90;48.30
21439;DHT22;10880;50.302;18.736;2023-03-23T12:57:08;20.90;48.10
21439;DHT22;10880;50.302;18.736;2023-03-23T13:02:21;20.90;47.40
21439;DHT22;10880;50.302;18.736;2023-03-23T13:04:55;21.00;46.90
21439;DHT22;10880;50.302;18.736;2023-03-23T13:07:31;21.00;46.90
21439;DHT22;10880;50.302;18.736;2023-03-23T13:10:08;21.00;46.90
21439;DHT22;10880;50.302;18.736;2023-03-23T13:12:40;21.00;47.50
21439;DHT22;10880;50.302;18.736;2023-03-23T13:15:39;21.00;47.10
21439;DHT22;10880;50.302;18.736;2023-03-23T13:18:24;21.00;47.70
21439;DHT22;10880;50.302;18.736;2023-03-23T13:23:48;21.00;47.80
21439;DHT22;10880;50.302;18.736;2023-03-23T13:26:21;21.00;47.40
21439;DHT22;10880;50.302;18.736;2023-03-23T13:34:30;21.10;47.80
21439;DHT22;10880;50.302;18.736;2023-03-23T13:37:02;21.10;47.10
21439;DHT22;10880;50.302;18.736;2023-03-23T13:39:32;21.20;47.60
21439;DHT22;10880;50.302;18.736;2023-03-23T13:47:26;21.20;47.50
21439;DHT22;10880;50.302;18.736;2023-03-23T13:50:03;21.20;47.00
21439;DHT22;10880;50.302;18.736;2023-03-23T13:55:48;21.30;47.50
21439;DHT22;10880;50.302;18.736;2023-03-23T13:58:25;21.30;47.40
21439;DHT22;10880;50.302;18.736;2023-03-23T14:01:10;21.30;46.70
21439;DHT22;10880;50.302;18.736;2023-03-23T14:03:42;21.30;46.30
21439;DHT22;10880;50.302;18.736;2023-03-23T14:06:15;21.30;46.70
21439;DHT22;10880;50.302;18.736;2023-03-23T14:09:06;21.30;47.10
21439;DHT22;10880;50.302;18.736;2023-03-23T14:11:33;21.30;46.60
21439;DHT22;10880;50.302;18.736;2023-03-23T14:14:14;21.30;46.90
21439;DHT22;10880;50.302;18.736;2023-03-23T14:16:50;21.30;46.70
21439;DHT22;10880;50.302;18.736;2023-03-23T14:19:27;21.30;47.20
21439;DHT22;10880;50.302;18.736;2023-03-23T14:22:00;21.30;47.30
21439;DHT22;10880;50.302;18.736;2023-03-23T14:24:29;21.30;47.20
21439;DHT22;10880;50.302;18.736;2023-03-23T14:27:21;21.40;46.70
21439;DHT22;10880;50.302;18.736;2023-03-23T14:30:03;21.40;47.30
21439;DHT22;10880;50.302;18.736;2023-03-23T14:32:31;21.40;47.10
21439;DHT22;10880;50.302;18.736;2023-03-23T14:35:00;21.40;46.40
21439;DHT22;10880;50.302;18.736;2023-03-23T14:39:58;21.40;46.70
21439;DHT22;10880;50.302;18.736;2023-03-23T14:42:32;21.40;46.70
21439;DHT22;10880;50.302;18.736;2023-03-23T14:45:00;21.50;46.70
21439;DHT22;10880;50.302;18.736;2023-03-23T14:47:34;21.30;46.70
21439;DHT22;10880;50.302;18.736;2023-03-23T14:50:04;21.50;47.40
21439;DHT22;10880;50.302;18.736;2023-03-23T14:52:36;21.40;46.60
21439;DHT22;10880;50.302;18.736;2023-03-23T14:55:16;21.50;46.50
21439;DHT22;10880;50.302;18.736;2023-03-23T14:57:43;21.50;46.50
21439;DHT22;10880;50.302;18.736;2023-03-23T15:00:23;21.40;46.50
21439;DHT22;10880;50.302;18.736;2023-03-23T15:02:53;21.40;46.50
21439;DHT22;10880;50.302;18.736;2023-03-23T15:05:30;21.40;47.00
21439;DHT22;10880;50.302;18.736;2023-03-23T15:08:03;21.40;46.50
21439;DHT22;10880;50.302;18.736;2023-03-23T15:12:58;21.30;46.50
21439;DHT22;10880;50.302;18.736;2023-03-23T15:15:32;21.30;46.90
21439;DHT22;10880;50.302;18.736;2023-03-23T15:18:00;21.30;47.00
21439;DHT22;10880;50.302;18.736;2023-03-23T15:20:45;21.30;47.00
21439;DHT22;10880;50.302;18.736;2023-03-23T15:23:27;21.30;47.00
21439;DHT22;10880;50.302;18.736;2023-03-23T15:25:56;21.20;47.10
21439;DHT22;10880;50.302;18.736;2023-03-23T15:28:33;21.20;47.10
21439;DHT22;10880;50.302;18.736;2023-03-23T15:31:02;21.20;46.90
21439;DHT22;10880;50.302;18.736;2023-03-23T15:33:38;21.20;47.10
21439;DHT22;10880;50.302;18.736;2023-03-23T15:36:08;21.20;46.50
21439;DHT22;10880;50.302;18.736;2023-03-23T15:38:36;21.20;47.30
21439;DHT22;10880;50.302;18.736;2023-03-23T15:41:05;21.10;46.80
21439;DHT22;10880;50.302;18.736;2023-03-23T15:44:08;21.10;47.30
21439;DHT22;10880;50.302;18.736;2023-03-23T15:46:35;21.10;47.30
21439;DHT22;10880;50.302;18.736;2023-03-23T15:49:09;21.10;46.80
21439;DHT22;10880;50.302;18.736;2023-03-23T15:51:36;21.10;47.30
21439;DHT22;10880;50.302;18.736;2023-03-23T15:54:05;21.00;46.90
21439;DHT22;10880;50.302;18.736;2023-03-23T15:56:35;21.00;47.40
21439;DHT22;10880;50.302;18.736;2023-03-23T15:59:02;21.00;46.90
21439;DHT22;10880;50.302;18.736;2023-03-23T16:01:29;21.00;47.10
21439;DHT22;10880;50.302;18.736;2023-03-23T16:04:05;20.90;46.90
21439;DHT22;10880;50.302;18.736;2023-03-23T16:06:34;21.00;46.90
21439;DHT22;10880;50.302;18.736;2023-03-23T16:09:03;21.00;47.50
21439;DHT22;10880;50.302;18.736;2023-03-23T16:11:34;20.90;47.00
21439;DHT22;10880;50.302;18.736;2023-03-23T16:16:38;20.90;47.10
21439;DHT22;10880;50.302;18.736;2023-03-23T16:19:05;20.90;47.60
21439;DHT22;10880;50.302;18.736;2023-03-23T16:21:32;20.80;47.50
21439;DHT22;10880;50.302;18.736;2023-03-23T16:24:00;20.80;47.60
21439;DHT22;10880;50.302;18.736;2023-03-23T16:26:28;20.80;47.30
21439;DHT22;10880;50.302;18.736;2023-03-23T16:28:55;20.80;47.30
21439;DHT22;10880;50.302;18.736;2023-03-23T16:33:54;20.70;47.30
21439;DHT22;10880;50.302;18.736;2023-03-23T16:36:24;20.70;47.50
21439;DHT22;10880;50.302;18.736;2023-03-23T16:38:53;20.70;47.40
21439;DHT22;10880;50.302;18.736;2023-03-23T16:41:20;20.70;47.80
21439;DHT22;10880;50.302;18.736;2023-03-23T16:43:47;20.70;48.00
21439;DHT22;10880;50.302;18.736;2023-03-23T16:51:09;20.60;47.70
21439;DHT22;10880;50.302;18.736;2023-03-23T16:53:36;20.60;48.30
21439;DHT22;10880;50.302;18.736;2023-03-23T16:56:03;20.50;47.80
21439;DHT22;10880;50.302;18.736;2023-03-23T16:58:30;20.50;48.30
21439;DHT22;10880;50.302;18.736;2023-03-23T17:00:57;20.50;48.10
21439;DHT22;10880;50.302;18.736;2023-03-23T17:03:23;20.60;48.20
21439;DHT22;10880;50.302;18.736;2023-03-23T17:05:50;20.50;48.30
21439;DHT22;10880;50.302;18.736;2023-03-23T17:08:18;20.40;48.60
21439;DHT22;10880;50.302;18.736;2023-03-23T17:13:12;20.40;48.70
21439;DHT22;10880;50.302;18.736;2023-03-23T17:15:40;20.40;49.00
21439;DHT22;10880;50.302;18.736;2023-03-23T17:18:07;20.30;49.30
21439;DHT22;10880;50.302;18.736;2023-03-23T17:20:34;20.30;49.40
21439;DHT22;10880;50.302;18.736;2023-03-23T17:23:01;20.30;49.20
21439;DHT22;10880;50.302;18.736;2023-03-23T17:25:28;20.20;49.50
21439;DHT22;10880;50.302;18.736;2023-03-23T17:30:25;20.10;49.40
21439;DHT22;10880;50.302;18.736;2023-03-23T17:32:52;20.10;50.00
21439;DHT22;10880;50.302;18.736;2023-03-23T17:35:19;20.10;50.20
21439;DHT22;10880;50.302;18.736;2023-03-23T17:37:45;20.00;50.20
21439;DHT22;10880;50.302;18.736;2023-03-23T17:40:13;19.90;50.00
21439;DHT22;10880;50.302;18.736;2023-03-23T17:42:51;19.90;50.40
21439;DHT22;10880;50.302;18.736;2023-03-23T17:45:18;19.90;50.40
21439;DHT22;10880;50.302;18.736;2023-03-23T17:47:45;19.80;50.30
21439;DHT22;10880;50.302;18.736;2023-03-23T17:50:13;19.80;50.60
21439;DHT22;10880;50.302;18.736;2023-03-23T17:52:40;19.70;50.40
21439;DHT22;10880;50.302;18.736;2023-03-23T17:55:09;19.70;50.70
21439;DHT22;10880;50.302;18.736;2023-03-23T17:57:36;19.70;51.00
21439;DHT22;10880;50.302;18.736;2023-03-23T18:00:05;19.70;50.90
21439;DHT22;10880;50.302;18.736;2023-03-23T18:02:36;19.60;50.80
21439;DHT22;10880;50.302;18.736;2023-03-23T18:05:04;19.60;50.90
21439;DHT22;10880;50.302;18.736;2023-03-23T18:07:31;19.50;50.90
21439;DHT22;10880;50.302;18.736;2023-03-23T18:12:29;19.50;50.80
21439;DHT22;10880;50.302;18.736;2023-03-23T18:14:57;19.50;51.30
21439;DHT22;10880;50.302;18.736;2023-03-23T18:20:03;19.40;51.00
21439;DHT22;10880;50.302;18.736;2023-03-23T18:22:30;19.40;51.40
21439;DHT22;10880;50.302;18.736;2023-03-23T18:24:57;19.40;51.50
21439;DHT22;10880;50.302;18.736;2023-03-23T18:27:24;19.40;51.60
21439;DHT22;10880;50.302;18.736;2023-03-23T18:32:18;19.30;51.60
21439;DHT22;10880;50.302;18.736;2023-03-23T18:34:45;19.30;51.90
21439;DHT22;10880;50.302;18.736;2023-03-23T18:37:13;19.20;52.30
21439;DHT22;10880;50.302;18.736;2023-03-23T18:39:39;19.20;52.20
21439;DHT22;10880;50.302;18.736;2023-03-23T18:42:06;19.20;52.40
21439;DHT22;10880;50.302;18.736;2023-03-23T18:44:33;19.10;52.30
21439;DHT22;10880;50.302;18.736;2023-03-23T18:46:59;19.10;52.50
21439;DHT22;10880;50.302;18.736;2023-03-23T18:51:54;19.10;52.30
21439;DHT22;10880;50.302;18.736;2023-03-23T18:54:21;19.00;52.20
21439;DHT22;10880;50.302;18.736;2023-03-23T18:56:47;19.00;52.70
21439;DHT22;10880;50.302;18.736;2023-03-23T18:59:14;19.00;52.40
21439;DHT22;10880;50.302;18.736;2023-03-23T19:04:08;19.00;52.30
21439;DHT22;10880;50.302;18.736;2023-03-23T19:09:06;19.00;52.20
21439;DHT22;10880;50.302;18.736;2023-03-23T19:11:34;19.00;52.30
21439;DHT22;10880;50.302;18.736;2023-03-23T19:14:00;19.00;52.70
21439;DHT22;10880;50.302;18.736;2023-03-23T19:16:28;19.00;52.30
21439;DHT22;10880;50.302;18.736;2023-03-23T19:21:23;19.00;52.20
21439;DHT22;10880;50.302;18.736;2023-03-23T19:23:49;18.90;52.20
21439;DHT22;10880;50.302;18.736;2023-03-23T19:26:27;19.00;53.10
21439;DHT22;10880;50.302;18.736;2023-03-23T19:28:54;18.90;52.50
21439;DHT22;10880;50.302;18.736;2023-03-23T19:31:21;19.00;52.10
21439;DHT22;10880;50.302;18.736;2023-03-23T19:33:56;19.00;52.00
21439;DHT22;10880;50.302;18.736;2023-03-23T19:36:23;19.00;52.10
21439;DHT22;10880;50.302;18.736;2023-03-23T19:38:49;19.00;52.10
21439;DHT22;10880;50.302;18.736;2023-03-23T19:41:17;19.00;52.10
21439;DHT22;10880;50.302;18.736;2023-03-23T19:43:44;19.00;52.20